Time;durP1;ratioP1;P1;durP2;ratioP2;P2;SDS_P1;SDS_P2;PMS_P1;PMS_P2;Temp;Humidity;BMP_temperature;BMP_pressure;BME280_temperature;BME280_humidity;BME280_pressure;Samples;Min_cycle;Max_cycle;Signal;HPM_P1;HPM_P2
2022/10/26 00:02:17;;;;;;;12.60;7.90;;;;;;;;;;6300710;28;20845;-65
2022/10/26 00:05:20;;;;;;;12.73;7.35;;;;;;;;;;6304452;28;20053;-65
2022/10/26 00:08:22;;;;;;;;;;;;;;;;;;6305068;28;20056;-65
2022/10/26 00:11:24;;;;;;;17.80;8.40;;;;;;;;;;6305087;28;19931;-64
2022/10/26 00:14:26;;;;;;;11.13;8.02;;;;;;;;;;6305366;28;20145;-65
2022/10/26 00:17:28;;;;;;;13.13;7.47;;;;;;;;;;6303627;28;20045;-65
2022/10/26 00:20:32;;;;;;;12.05;6.78;;;;;;;;;;6301305;28;20336;-66
2022/10/26 00:23:33;;;;;;;10.80;7.00;;;;;;;;;;6302037;28;20056;-65
2022/10/26 00:26:35;;;;;;;10.23;6.75;;;;;;;;;;6304068;28;20075;-65
2022/10/26 00:29:37;;;;;;;11.15;7.00;;;;;;;;;;6304143;28;20052;-65
2022/10/26 00:32:38;;;;;;;13.80;7.18;;;;;;;;;;6304469;28;20125;-65
2022/10/26 00:35:41;;;;;;;12.55;7.05;;;;;;;;;;6305624;28;20044;-65
2022/10/26 00:38:44;;;;;;;8.73;6.25;;;;;;;;;;6306938;28;20852;-65
2022/10/26 00:41:46;;;;;;;13.50;7.43;;;;;;;;;;6303853;28;20085;-65
2022/10/26 00:45:00;;;;;;;8.95;7.10;;;;;;;;;;6301748;28;20040;-64
2022/10/26 00:48:05;;;;;;;12.93;7.30;;;;;;;;;;6303535;28;20064;-64
2022/10/26 00:51:11;;;;;;;12.75;7.28;;;;;;;;;;6304525;28;20067;-65
2022/10/26 00:54:17;;;;;;;13.57;6.97;;;;;;;;;;6303277;28;20048;-64
2022/10/26 00:57:19;;;;;;;11.48;7.43;;;;;;;;;;6305088;28;20048;-65
2022/10/26 01:00:21;;;;;;;12.75;7.15;;;;;;;;;;6300206;28;20610;-65
2022/10/26 01:03:24;;;;;;;11.02;6.78;;;;;;;;;;6300469;28;20048;-64
2022/10/26 01:06:27;;;;;;;11.15;7.28;;;;;;;;;;6302952;28;20043;-64
2022/10/26 01:09:29;;;;;;;11.88;7.03;;;;;;;;;;6300652;28;20262;-65
2022/10/26 01:12:30;;;;;;;13.57;7.80;;;;;;;;;;6302211;28;20044;-66
2022/10/26 01:15:39;;;;;;;9.48;6.53;;;;;;;;;;6307311;28;20094;-64
2022/10/26 01:18:45;;;;;;;11.43;6.45;;;;;;;;;;6308450;28;20293;-64
2022/10/26 01:21:54;;;;;;;11.45;7.13;;;;;;;;;;6306012;28;20282;-65
2022/10/26 01:25:04;;;;;;;8.75;6.80;;;;;;;;;;6304865;28;20052;-64
2022/10/26 01:28:13;;;;;;;10.07;7.13;;;;;;;;;;6305158;28;20043;-64
2022/10/26 01:31:20;;;;;;;11.95;7.03;;;;;;;;;;6303965;28;20048;-65
2022/10/26 01:34:25;;;;;;;11.05;7.38;;;;;;;;;;6304804;28;20087;-66
2022/10/26 01:37:28;;;;;;;10.50;7.43;;;;;;;;;;6309088;28;20253;-67
2022/10/26 01:40:34;;;;;;;12.18;6.57;;;;;;;;;;6308115;28;20052;-67
2022/10/26 01:43:38;;;;;;;10.20;6.60;;;;;;;;;;6306325;28;20044;-67
2022/10/26 01:46:44;;;;;;;10.70;6.45;;;;;;;;;;6306996;28;20053;-66
2022/10/26 01:49:48;;;;;;;11.25;6.97;;;;;;;;;;6306304;28;20352;-65
2022/10/26 01:52:50;;;;;;;12.70;7.40;;;;;;;;;;6303054;28;20056;-65
2022/10/26 01:55:53;;;;;;;12.07;6.90;;;;;;;;;;6307530;28;20328;-66
2022/10/26 01:59:11;;;;;;;17.57;7.67;;;;;;;;;;6309139;28;20065;-67
2022/10/26 02:02:25;;;;;;;11.27;7.45;;;;;;;;;;6305764;28;20282;-69
2022/10/26 02:05:44;;;;;;;11.50;7.20;;;;;;;;;;6303693;28;20067;-68
2022/10/26 02:08:55;;;;;;;10.57;6.43;;;;;;;;;;6305884;28;20102;-69
2022/10/26 02:11:58;;;;;;;14.10;7.15;;;;;;;;;;6304288;28;20052;-70
2022/10/26 02:15:05;;;;;;;12.80;6.53;;;;;;;;;;6306220;28;20047;-68
2022/10/26 02:18:16;;;;;;;13.40;6.80;;;;;;;;;;6305684;28;20508;-68
2022/10/26 02:21:20;;;;;;;11.30;6.72;;;;;;;;;;6306399;28;20090;-66
2022/10/26 02:24:23;;;;;;;12.30;6.50;;;;;;;;;;6310794;28;20336;-65
2022/10/26 02:27:26;;;;;;;12.60;6.60;;;;;;;;;;6311579;28;20528;-65
2022/10/26 02:30:28;;;;;;;12.90;7.10;;;;;;;;;;6308425;28;20067;-65
2022/10/26 02:33:33;;;;;;;12.52;6.18;;;;;;;;;;6304152;28;20056;-65
2022/10/26 02:36:40;;;;;;;14.90;6.13;;;;;;;;;;6307704;28;20315;-65
2022/10/26 02:39:41;;;;;;;11.43;7.15;;;;;;;;;;6309690;28;20063;-65
2022/10/26 02:42:45;;;;;;;11.05;7.15;;;;;;;;;;6303234;28;20040;-65
2022/10/26 02:45:47;;;;;;;;;;;;;;;;;;6307208;28;20057;-64
2022/10/26 02:48:50;;;;;;;14.75;7.63;;;;;;;;;;6306237;28;21125;-65
2022/10/26 02:51:56;;;;;;;9.98;6.50;;;;;;;;;;6308150;28;20115;-65
2022/10/26 02:55:00;;;;;;;11.02;6.93;;;;;;;;;;6307763;28;20259;-65
2022/10/26 02:58:04;;;;;;;11.75;6.82;;;;;;;;;;6306492;28;20048;-65
2022/10/26 03:01:07;;;;;;;12.57;6.45;;;;;;;;;;6304328;28;20232;-65
2022/10/26 03:04:10;;;;;;;13.43;6.90;;;;;;;;;;6309334;28;20048;-65
2022/10/26 03:07:11;;;;;;;12.30;6.70;;;;;;;;;;6308185;28;20048;-65
2022/10/26 03:10:13;;;;;;;10.50;6.03;;;;;;;;;;6304806;28;20273;-64
2022/10/26 03:13:14;;;;;;;12.18;6.03;;;;;;;;;;6304309;28;20040;-65
2022/10/26 03:16:16;;;;;;;13.93;5.90;;;;;;;;;;6304828;28;20055;-65
2022/10/26 03:19:20;;;;;;;12.43;7.30;;;;;;;;;;6305170;28;20052;-65
2022/10/26 03:22:22;;;;;;;10.77;5.97;;;;;;;;;;6308679;28;20283;-65
2022/10/26 03:25:24;;;;;;;13.25;6.80;;;;;;;;;;6303913;28;20043;-65
2022/10/26 03:28:25;;;;;;;12.15;6.90;;;;;;;;;;6305222;28;20052;-65
2022/10/26 03:31:27;;;;;;;11.02;6.55;;;;;;;;;;6302103;28;20048;-65
2022/10/26 03:34:30;;;;;;;14.63;6.63;;;;;;;;;;6300938;28;20094;-65
2022/10/26 03:37:31;;;;;;;13.13;6.70;;;;;;;;;;6308817;28;20086;-65
2022/10/26 03:40:34;;;;;;;10.75;6.65;;;;;;;;;;6305829;28;20465;-65
2022/10/26 03:43:36;;;;;;;10.23;6.03;;;;;;;;;;6303190;28;20082;-65
2022/10/26 03:46:38;;;;;;;10.23;6.53;;;;;;;;;;6303738;28;20504;-65
2022/10/26 03:49:40;;;;;;;9.68;6.00;;;;;;;;;;6308136;28;20056;-65
2022/10/26 03:52:42;;;;;;;11.40;6.82;;;;;;;;;;6301674;28;20166;-65
2022/10/26 03:55:44;;;;;;;11.95;6.95;;;;;;;;;;6304152;28;20116;-65
2022/10/26 03:58:46;;;;;;;10.63;6.75;;;;;;;;;;6303221;28;20056;-65
2022/10/26 04:01:47;;;;;;;12.05;6.90;;;;;;;;;;6305873;28;20057;-65
2022/10/26 04:04:50;;;;;;;13.63;7.28;;;;;;;;;;6303472;28;20097;-65
2022/10/26 04:07:53;;;;;;;10.80;6.18;;;;;;;;;;6303624;28;20303;-65
2022/10/26 04:10:54;;;;;;;11.50;6.45;;;;;;;;;;6304292;28;20406;-65
2022/10/26 04:13:58;;;;;;;8.52;5.40;;;;;;;;;;6305668;28;20321;-65
2022/10/26 04:17:00;;;;;;;11.40;6.18;;;;;;;;;;6302780;28;20043;-65
2022/10/26 04:20:03;;;;;;;8.70;5.75;;;;;;;;;;6298984;28;20060;-65
2022/10/26 04:23:06;;;;;;;9.45;5.70;;;;;;;;;;6308400;28;20101;-64
2022/10/26 04:26:08;;;;;;;8.82;5.68;;;;;;;;;;6301910;28;20343;-65
2022/10/26 04:29:10;;;;;;;10.00;5.65;;;;;;;;;;6306223;28;20056;-65
2022/10/26 04:32:11;;;;;;;8.73;5.30;;;;;;;;;;6302781;28;20232;-64
2022/10/26 04:35:15;;;;;;;10.65;5.63;;;;;;;;;;6301231;28;20309;-65
2022/10/26 04:38:16;;;;;;;10.48;5.85;;;;;;;;;;6308431;28;20352;-65
2022/10/26 04:41:18;;;;;;;8.90;5.60;;;;;;;;;;6307457;28;20094;-66
2022/10/26 04:44:19;;;;;;;15.23;5.78;;;;;;;;;;6305148;28;20056;-64
2022/10/26 04:47:21;;;;;;;10.48;5.80;;;;;;;;;;6307633;28;20056;-68
2022/10/26 04:50:24;;;;;;;8.75;5.05;;;;;;;;;;6300774;28;20316;-65
2022/10/26 04:53:26;;;;;;;11.68;5.35;;;;;;;;;;6306493;28;20716;-66
2022/10/26 04:56:27;;;;;;;9.32;5.45;;;;;;;;;;6307868;28;20566;-65
2022/10/26 04:59:29;;;;;;;8.70;5.25;;;;;;;;;;6301842;28;20052;-67
2022/10/26 05:02:31;;;;;;;8.40;5.45;;;;;;;;;;6303346;28;20060;-67
2022/10/26 05:05:35;;;;;;;10.25;4.93;;;;;;;;;;6302015;28;20068;-65
2022/10/26 05:08:37;;;;;;;7.57;4.60;;;;;;;;;;6301988;28;20732;-67
2022/10/26 05:11:38;;;;;;;8.57;5.18;;;;;;;;;;6305171;28;20347;-67
2022/10/26 05:14:40;;;;;;;9.50;5.95;;;;;;;;;;6303202;28;20329;-65
2022/10/26 05:17:42;;;;;;;11.32;5.38;;;;;;;;;;6303837;28;20118;-65
2022/10/26 05:20:45;;;;;;;8.50;5.00;;;;;;;;;;6300864;28;20102;-65
2022/10/26 05:23:50;;;;;;;9.80;5.75;;;;;;;;;;6308007;28;20049;-65
2022/10/26 05:26:51;;;;;;;11.60;5.90;;;;;;;;;;6301553;28;20090;-65
2022/10/26 05:29:53;;;;;;;14.07;5.93;;;;;;;;;;6305579;28;20102;-66
2022/10/26 05:32:55;;;;;;;10.63;5.90;;;;;;;;;;6300773;28;20068;-65
2022/10/26 05:35:58;;;;;;;12.80;5.47;;;;;;;;;;6302753;28;20064;-66
2022/10/26 05:38:59;;;;;;;11.02;6.40;;;;;;;;;;6303583;28;20286;-68
2022/10/26 05:42:01;;;;;;;12.10;6.97;;;;;;;;;;6303661;28;20093;-68
2022/10/26 05:45:03;;;;;;;12.93;7.35;;;;;;;;;;6303286;28;20097;-65
2022/10/26 05:48:05;;;;;;;12.40;7.53;;;;;;;;;;6299745;28;20060;-66
2022/10/26 05:51:09;;;;;;;13.13;7.65;;;;;;;;;;6302965;28;20044;-65
2022/10/26 05:54:11;;;;;;;13.40;7.35;;;;;;;;;;6299720;28;20052;-66
2022/10/26 05:57:13;;;;;;;15.00;8.68;;;;;;;;;;6298574;28;20094;-66
2022/10/26 06:00:17;;;;;;;12.38;7.93;;;;;;;;;;6306760;28;20145;-66
2022/10/26 06:03:28;;;;;;;13.13;7.75;;;;;;;;;;6301823;28;20058;-66
2022/10/26 06:06:34;;;;;;;14.48;7.60;;;;;;;;;;6305142;28;20063;-66
2022/10/26 06:09:36;;;;;;;11.38;7.00;;;;;;;;;;6306039;28;20052;-65
2022/10/26 06:12:38;;;;;;;12.88;7.40;;;;;;;;;;6302691;28;20056;-65
2022/10/26 06:15:47;;;;;;;10.65;7.25;;;;;;;;;;6305389;28;20343;-68
2022/10/26 06:18:54;;;;;;;15.82;8.23;;;;;;;;;;6304553;28;21282;-69
2022/10/26 06:22:07;;;;;;;9.65;6.82;;;;;;;;;;6302317;28;20052;-68
2022/10/26 06:25:15;;;;;;;11.10;6.67;;;;;;;;;;6306441;28;20343;-68
2022/10/26 06:28:27;;;;;;;13.02;6.55;;;;;;;;;;6301426;28;20044;-69
2022/10/26 06:31:28;;;;;;;12.10;6.90;;;;;;;;;;6302016;28;20390;-68
2022/10/26 06:34:33;;;;;;;9.52;6.28;;;;;;;;;;6310582;28;20344;-68
2022/10/26 06:37:37;;;;;;;12.00;6.22;;;;;;;;;;6308508;28;20186;-68
2022/10/26 06:40:41;;;;;;;16.27;6.43;;;;;;;;;;6312753;28;20074;-68
2022/10/26 06:43:43;;;;;;;9.77;5.55;;;;;;;;;;6311248;28;20066;-68
2022/10/26 06:46:47;;;;;;;11.70;5.93;;;;;;;;;;6311893;28;20109;-68
2022/10/26 06:49:56;;;;;;;13.02;5.70;;;;;;;;;;6315088;28;20064;-67
2022/10/26 06:53:06;;;;;;;10.00;5.88;;;;;;;;;;6313651;28;20040;-68
2022/10/26 06:56:08;;;;;;;16.67;6.22;;;;;;;;;;6312713;28;20328;-68
2022/10/26 06:59:15;;;;;;;11.55;6.15;;;;;;;;;;6312049;28;20056;-68
2022/10/26 07:02:16;;;;;;;13.65;6.70;;;;;;;;;;6311424;28;20121;-68
2022/10/26 07:05:18;;;;;;;12.98;6.18;;;;;;;;;;6313442;28;20194;-68
2022/10/26 07:08:21;;;;;;;11.25;6.35;;;;;;;;;;6310449;28;20126;-68
2022/10/26 07:11:23;;;;;;;13.20;6.53;;;;;;;;;;6303404;28;20086;-68
2022/10/26 07:14:24;;;;;;;11.15;6.38;;;;;;;;;;6307832;28;20052;-68
2022/10/26 07:17:27;;;;;;;12.57;7.85;;;;;;;;;;6309084;28;20102;-67
2022/10/26 07:20:28;;;;;;;11.25;6.82;;;;;;;;;;6304680;28;20056;-68
2022/10/26 07:23:31;;;;;;;13.60;7.82;;;;;;;;;;6306668;28;20048;-68
2022/10/26 07:26:33;;;;;;;11.77;6.55;;;;;;;;;;6307033;28;20114;-68
2022/10/26 07:29:35;;;;;;;12.45;7.20;;;;;;;;;;6313123;28;20041;-68
2022/10/26 07:32:36;;;;;;;16.52;7.63;;;;;;;;;;6304992;28;20072;-68
2022/10/26 07:35:38;;;;;;;16.55;7.10;;;;;;;;;;6304397;28;20099;-68
2022/10/26 07:38:41;;;;;;;13.45;7.18;;;;;;;;;;6304684;28;20044;-68
2022/10/26 07:41:45;;;;;;;14.05;7.18;;;;;;;;;;6306286;28;20082;-67
2022/10/26 07:44:46;;;;;;;13.05;8.00;;;;;;;;;;6308417;28;20048;-68
2022/10/26 07:47:49;;;;;;;11.55;6.78;;;;;;;;;;6306708;28;20053;-68
2022/10/26 07:50:50;;;;;;;17.73;7.95;;;;;;;;;;6306132;28;20048;-68
2022/10/26 07:53:53;;;;;;;12.80;6.93;;;;;;;;;;6303622;28;20052;-68
2022/10/26 07:56:55;;;;;;;12.20;7.35;;;;;;;;;;6301786;28;20267;-68
2022/10/26 07:59:57;;;;;;;13.70;8.07;;;;;;;;;;6302030;28;20363;-68
2022/10/26 08:02:58;;;;;;;14.80;8.05;;;;;;;;;;6304853;28;20045;-68
2022/10/26 08:06:00;;;;;;;18.95;8.35;;;;;;;;;;6303320;28;20052;-68
2022/10/26 08:09:03;;;;;;;15.35;7.43;;;;;;;;;;6305541;28;20051;-68
2022/10/26 08:12:05;;;;;;;16.42;7.88;;;;;;;;;;6303260;28;20048;-66
2022/10/26 08:15:08;;;;;;;19.98;9.18;;;;;;;;;;6305041;28;20272;-65
2022/10/26 08:18:10;;;;;;;17.13;9.00;;;;;;;;;;6303906;28;20124;-66
2022/10/26 08:21:12;;;;;;;13.48;9.35;;;;;;;;;;6305353;28;20048;-65
2022/10/26 08:24:15;;;;;;;15.43;9.77;;;;;;;;;;6308601;28;20063;-65
2022/10/26 08:27:16;;;;;;;18.55;9.45;;;;;;;;;;6303190;28;20393;-65
2022/10/26 08:30:18;;;;;;;16.67;9.73;;;;;;;;;;6303164;28;20324;-65
2022/10/26 08:33:19;;;;;;;16.92;9.60;;;;;;;;;;6302820;28;20052;-65
2022/10/26 08:36:24;;;;;;;18.88;10.23;;;;;;;;;;6301576;28;20082;-65
2022/10/26 08:39:27;;;;;;;18.42;9.35;;;;;;;;;;6304715;28;20122;-65
2022/10/26 08:42:33;;;;;;;17.50;10.13;;;;;;;;;;6301561;28;20053;-65
2022/10/26 08:45:37;;;;;;;27.55;9.63;;;;;;;;;;6303301;28;20052;-65
2022/10/26 08:48:42;;;;;;;16.65;8.95;;;;;;;;;;6304934;28;20112;-65
2022/10/26 08:51:44;;;;;;;12.90;8.63;;;;;;;;;;6303839;28;20106;-67
2022/10/26 08:54:51;;;;;;;16.33;8.38;;;;;;;;;;6304974;28;20060;-68
2022/10/26 08:57:53;;;;;;;19.23;8.80;;;;;;;;;;6305618;28;20347;-67
2022/10/26 09:00:55;;;;;;;15.48;8.85;;;;;;;;;;6301420;28;20060;-67
2022/10/26 09:03:56;;;;;;;15.70;9.57;;;;;;;;;;6301190;28;20052;-68
2022/10/26 09:07:04;;;;;;;15.55;9.10;;;;;;;;;;6300902;28;20757;-68
2022/10/26 09:10:16;;;;;;;17.40;9.18;;;;;;;;;;6301454;28;20060;-68
2022/10/26 09:13:23;;;;;;;16.70;8.65;;;;;;;;;;6301220;28;20059;-68
2022/10/26 09:16:28;;;;;;;17.45;7.80;;;;;;;;;;6303587;28;20056;-68
2022/10/26 09:19:58;;;;;;;21.30;8.60;;;;;;;;;;6300760;28;20052;-68
2022/10/26 09:23:04;;;;;;;11.60;7.88;;;;;;;;;;6303037;28;20101;-68
2022/10/26 09:26:13;;;;;;;14.20;7.93;;;;;;;;;;6308027;28;20094;-68
2022/10/26 09:29:15;;;;;;;15.23;7.78;;;;;;;;;;6308760;28;20328;-68
2022/10/26 09:32:18;;;;;;;12.13;7.97;;;;;;;;;;6305274;28;20044;-68
2022/10/26 09:35:20;;;;;;;;;;;;;;;;;;6311241;28;20117;-68
2022/10/26 09:38:25;;;;;;;11.20;7.93;;;;;;;;;;6310890;28;19924;-68
2022/10/26 09:41:31;;;;;;;14.07;8.15;;;;;;;;;;6309068;28;20184;-68
2022/10/26 09:44:36;;;;;;;14.85;8.15;;;;;;;;;;6310626;28;20076;-68
2022/10/26 09:47:39;;;;;;;17.35;8.07;;;;;;;;;;6308953;28;20056;-68
2022/10/26 09:50:45;;;;;;;16.88;8.50;;;;;;;;;;6307915;28;20040;-68
2022/10/26 09:53:48;;;;;;;14.77;9.20;;;;;;;;;;6307666;28;20055;-68
2022/10/26 09:56:53;;;;;;;17.92;9.38;;;;;;;;;;6309044;28;20107;-68
2022/10/26 09:59:55;;;;;;;12.88;8.13;;;;;;;;;;6309074;28;20067;-68
2022/10/26 10:02:57;;;;;;;15.07;9.25;;;;;;;;;;6305600;28;20052;-68
2022/10/26 10:06:16;;;;;;;16.43;9.50;;;;;;;;;;6309318;28;20052;-68
2022/10/26 10:09:19;;;;;;;17.70;10.93;;;;;;;;;;6308799;28;20859;-68
2022/10/26 10:12:22;;;;;;;15.93;9.02;;;;;;;;;;6307851;28;20039;-68
2022/10/26 10:15:25;;;;;;;27.55;18.40;;;;;;;;;;6306130;28;20071;-68
2022/10/26 10:18:27;;;;;;;31.65;22.65;;;;;;;;;;6307705;28;20213;-67
2022/10/26 10:21:34;;;;;;;27.75;18.92;;;;;;;;;;6307855;28;20096;-68
2022/10/26 10:24:37;;;;;;;23.48;14.15;;;;;;;;;;6309724;28;20056;-68
2022/10/26 10:27:52;;;;;;;16.70;10.50;;;;;;;;;;6307941;28;20052;-68
2022/10/26 10:30:58;;;;;;;16.30;8.55;;;;;;;;;;6310345;28;20161;-68
2022/10/26 10:34:00;;;;;;;14.50;7.47;;;;;;;;;;6302596;28;20194;-68
2022/10/26 10:37:01;;;;;;;14.55;7.47;;;;;;;;;;6304350;28;20053;-67
2022/10/26 10:40:06;;;;;;;12.15;7.35;;;;;;;;;;6301457;28;20446;-67
2022/10/26 10:43:12;;;;;;;13.35;6.72;;;;;;;;;;6306720;28;20052;-65
2022/10/26 10:46:18;;;;;;;9.43;7.47;;;;;;;;;;6302105;28;20163;-68
2022/10/26 10:49:23;;;;;;;11.70;7.68;;;;;;;;;;6306255;28;20336;-66
2022/10/26 10:52:27;;;;;;;13.43;7.55;;;;;;;;;;6305075;28;20063;-68
2022/10/26 10:55:29;;;;;;;8.93;5.88;;;;;;;;;;6303872;28;20063;-69
2022/10/26 10:58:37;;;;;;;14.02;6.82;;;;;;;;;;6301677;28;20048;-67
2022/10/26 11:01:40;;;;;;;8.75;5.85;;;;;;;;;;6303568;28;20044;-66
2022/10/26 11:04:53;;;;;;;19.90;7.30;;;;;;;;;;6302833;28;20325;-65
2022/10/26 11:07:55;;;;;;;;;;;;;;;;;;6305528;28;20060;-66
2022/10/26 11:11:01;;;;;;;12.48;7.03;;;;;;;;;;6299732;28;19954;-65
2022/10/26 11:14:08;;;;;;;9.15;5.63;;;;;;;;;;6305256;28;20112;-66
2022/10/26 11:17:14;;;;;;;13.00;6.85;;;;;;;;;;6307798;28;20347;-67
2022/10/26 11:20:17;;;;;;;10.38;5.90;;;;;;;;;;6302411;28;20067;-67
2022/10/26 11:23:21;;;;;;;11.40;7.32;;;;;;;;;;6307905;28;22140;-68
2022/10/26 11:26:28;;;;;;;11.20;6.38;;;;;;;;;;6303285;28;20052;-68
2022/10/26 11:29:37;;;;;;;10.75;6.00;;;;;;;;;;6304254;28;20059;-67
2022/10/26 11:32:42;;;;;;;12.85;7.93;;;;;;;;;;6301979;28;20044;-67
2022/10/26 11:35:45;;;;;;;14.73;9.07;;;;;;;;;;6301916;28;20122;-70
2022/10/26 11:38:49;;;;;;;13.57;8.35;;;;;;;;;;6305931;28;20089;-68
2022/10/26 11:41:55;;;;;;;11.38;7.40;;;;;;;;;;6309153;28;20052;-69
2022/10/26 11:45:02;;;;;;;15.50;7.38;;;;;;;;;;6312577;28;20341;-68
2022/10/26 11:48:07;;;;;;;15.93;7.28;;;;;;;;;;6312757;28;20056;-69
2022/10/26 11:51:14;;;;;;;15.40;8.63;;;;;;;;;;6314283;28;20044;-69
2022/10/26 11:54:19;;;;;;;14.18;8.75;;;;;;;;;;6310641;28;20058;-68
2022/10/26 11:57:22;;;;;;;14.05;8.82;;;;;;;;;;6303388;28;20283;-69
2022/10/26 12:00:25;;;;;;;;;;;;;;;;;;6305140;28;20315;-68
2022/10/26 12:03:28;;;;;;;12.63;8.40;;;;;;;;;;6307561;28;19925;-68
2022/10/26 12:06:32;;;;;;;15.43;8.88;;;;;;;;;;6313209;28;20102;-68
2022/10/26 12:09:37;;;;;;;16.92;8.95;;;;;;;;;;6314762;28;20129;-68
2022/10/26 12:12:41;;;;;;;13.95;8.23;;;;;;;;;;6306799;28;20063;-67
2022/10/26 12:15:46;;;;;;;14.57;8.30;;;;;;;;;;6309246;28;20052;-68
2022/10/26 12:18:51;;;;;;;14.65;8.10;;;;;;;;;;6310882;28;20048;-67
2022/10/26 12:21:53;;;;;;;8.95;6.95;;;;;;;;;;6311778;28;20048;-67
2022/10/26 12:25:06;;;;;;;12.77;7.68;;;;;;;;;;6305764;28;20120;-69
2022/10/26 12:28:38;;;;;;;12.90;7.40;;;;;;;;;;6303258;28;20044;-69
2022/10/26 12:31:44;;;;;;;14.80;7.27;;;;;;;;;;6297293;28;20052;-68
2022/10/26 12:35:01;;;;;;;11.02;5.82;;;;;;;;;;6300477;28;20053;-68
2022/10/26 12:38:48;;;;;;;12.23;6.05;;;;;;;;;;6291761;28;20567;-70
2022/10/26 12:41:56;;;;;;;11.32;6.13;;;;;;;;;;6302271;28;20064;-68
2022/10/26 12:45:13;;;;;;;9.30;5.68;;;;;;;;;;6302131;28;20056;-69
2022/10/26 12:48:23;;;;;;;11.70;6.18;;;;;;;;;;6301609;28;20056;-68
2022/10/26 12:51:41;;;;;;;12.30;6.20;;;;;;;;;;6299963;28;20119;-68
2022/10/26 12:54:51;;;;;;;9.32;6.45;;;;;;;;;;6298288;28;20044;-69
2022/10/26 12:58:01;;;;;;;10.25;6.55;;;;;;;;;;6309652;28;20056;-68
2022/10/26 13:01:42;;;;;;;12.13;6.60;;;;;;;;;;6305505;28;20052;-69
2022/10/26 13:05:13;;;;;;;13.27;7.13;;;;;;;;;;6285181;28;20044;-68
2022/10/26 13:08:15;;;;;;;11.07;6.55;;;;;;;;;;6301516;28;20098;-71
2022/10/26 13:11:18;;;;;;;15.25;8.02;;;;;;;;;;6302754;28;20064;-69
2022/10/26 13:14:22;;;;;;;10.80;6.38;;;;;;;;;;6300867;28;20056;-69
2022/10/26 13:17:25;;;;;;;7.72;5.15;;;;;;;;;;6303872;28;20081;-69
2022/10/26 13:20:29;;;;;;;10.15;6.00;;;;;;;;;;6301619;28;20056;-69
2022/10/26 13:23:33;;;;;;;15.45;7.65;;;;;;;;;;6307315;28;20055;-69
2022/10/26 13:27:12;;;;;;;9.38;5.93;;;;;;;;;;6299355;28;20265;-68
2022/10/26 13:30:37;;;;;;;11.13;5.50;;;;;;;;;;6302910;28;20866;-68
2022/10/26 13:33:41;;;;;;;13.50;6.60;;;;;;;;;;6293415;28;20159;-68
2022/10/26 13:36:47;;;;;;;10.57;6.50;;;;;;;;;;6302416;28;20064;-68
2022/10/26 13:39:54;;;;;;;9.18;6.53;;;;;;;;;;6303851;28;20057;-68
2022/10/26 13:42:57;;;;;;;11.90;5.95;;;;;;;;;;6297959;28;20040;-68
2022/10/26 13:46:00;;;;;;;10.15;6.20;;;;;;;;;;6299921;28;20048;-67
2022/10/26 13:49:05;;;;;;;;;;;;;;;;;;6300125;28;20067;-70
2022/10/26 13:52:14;;;;;;;11.27;6.25;;;;;;;;;;6302899;28;20142;-68
2022/10/26 13:55:21;;;;;;;8.30;5.30;;;;;;;;;;6306223;28;20101;-67
2022/10/26 13:58:26;;;;;;;14.30;5.43;;;;;;;;;;6301014;28;20355;-65
2022/10/26 14:01:28;;;;;;;17.08;7.72;;;;;;;;;;6303881;28;20106;-66
2022/10/26 14:04:29;;;;;;;12.63;7.18;;;;;;;;;;6303417;28;20050;-67
2022/10/26 14:07:35;;;;;;;14.32;7.82;;;;;;;;;;6302230;28;20323;-66
2022/10/26 14:10:38;;;;;;;14.10;7.68;;;;;;;;;;6299542;28;20052;-66
2022/10/26 14:13:40;;;;;;;11.30;6.63;;;;;;;;;;6300252;28;20143;-67
2022/10/26 14:16:45;;;;;;;15.40;8.90;;;;;;;;;;6298170;28;20052;-66
2022/10/26 14:19:47;;;;;;;13.88;8.45;;;;;;;;;;6302128;28;20071;-66
2022/10/26 14:22:50;;;;;;;13.27;8.60;;;;;;;;;;6306821;28;20060;-66
2022/10/26 14:25:53;;;;;;;13.85;8.20;;;;;;;;;;6302844;28;20114;-66
2022/10/26 14:28:56;;;;;;;15.05;8.55;;;;;;;;;;6304650;28;20055;-66
2022/10/26 14:31:58;;;;;;;12.02;7.25;;;;;;;;;;6301556;28;20048;-66
2022/10/26 14:34:59;;;;;;;13.32;7.60;;;;;;;;;;6303711;28;20107;-66
2022/10/26 14:38:04;;;;;;;16.63;8.93;;;;;;;;;;6304777;28;20044;-66
2022/10/26 14:41:06;;;;;;;31.17;9.50;;;;;;;;;;6302207;28;20048;-66
2022/10/26 14:44:15;;;;;;;18.55;8.50;;;;;;;;;;6300508;28;20051;-67
2022/10/26 14:47:23;;;;;;;12.15;7.88;;;;;;;;;;6303594;28;20061;-66
2022/10/26 14:50:29;;;;;;;16.45;7.53;;;;;;;;;;6305738;28;20235;-67
2022/10/26 14:53:38;;;;;;;17.02;7.60;;;;;;;;;;6303579;28;20052;-66
2022/10/26 14:56:40;;;;;;;16.42;7.60;;;;;;;;;;6305056;28;20072;-69
2022/10/26 14:59:42;;;;;;;13.50;7.93;;;;;;;;;;6304163;28;20072;-69
2022/10/26 15:02:44;;;;;;;13.70;7.53;;;;;;;;;;6306490;28;20048;-70
2022/10/26 15:05:46;;;;;;;17.40;8.07;;;;;;;;;;6300763;28;20063;-67
2022/10/26 15:08:54;;;;;;;14.70;7.50;;;;;;;;;;6307053;28;20275;-67
2022/10/26 15:11:55;;;;;;;17.33;8.02;;;;;;;;;;6304748;28;20511;-66
2022/10/26 15:15:03;;;;;;;14.45;8.50;;;;;;;;;;6304597;28;20145;-70
2022/10/26 15:18:05;;;;;;;16.17;7.25;;;;;;;;;;6301246;28;20078;-67
2022/10/26 15:21:21;;;;;;;11.52;7.18;;;;;;;;;;6302056;28;20090;-68
2022/10/26 15:24:33;;;;;;;16.85;8.63;;;;;;;;;;6304627;28;20075;-70
2022/10/26 15:27:34;;;;;;;14.30;8.18;;;;;;;;;;6304921;28;20121;-68
2022/10/26 15:30:36;;;;;;;15.77;7.93;;;;;;;;;;6303938;28;21278;-71
2022/10/26 15:33:40;;;;;;;15.27;7.53;;;;;;;;;;6305194;28;20053;-68
2022/10/26 15:36:42;;;;;;;15.75;8.63;;;;;;;;;;6303851;28;20105;-69
2022/10/26 15:39:45;;;;;;;20.45;10.05;;;;;;;;;;6303307;28;20314;-67
2022/10/26 15:42:49;;;;;;;52.50;38.70;;;;;;;;;;6301643;28;20044;-68
2022/10/26 15:45:53;;;;;;;19.92;12.80;;;;;;;;;;6305483;28;20056;-71
2022/10/26 15:48:56;;;;;;;17.73;9.52;;;;;;;;;;6305249;28;20055;-70
2022/10/26 15:51:58;;;;;;;16.70;11.18;;;;;;;;;;6304186;28;20086;-70
2022/10/26 15:55:01;;;;;;;17.92;8.95;;;;;;;;;;6303424;28;20045;-72
2022/10/26 15:58:03;;;;;;;13.93;8.75;;;;;;;;;;6302956;28;20350;-70
2022/10/26 16:01:05;;;;;;;17.90;9.40;;;;;;;;;;6303699;28;20052;-70
2022/10/26 16:04:06;;;;;;;19.13;10.07;;;;;;;;;;6300840;28;20061;-70
2022/10/26 16:07:12;;;;;;;17.33;9.48;;;;;;;;;;6300811;28;20135;-69
2022/10/26 16:10:19;;;;;;;19.50;10.25;;;;;;;;;;6299571;28;20105;-70
2022/10/26 16:13:21;;;;;;;16.52;9.52;;;;;;;;;;6305288;28;20084;-68
2022/10/26 16:16:22;;;;;;;17.15;10.10;;;;;;;;;;6301603;28;20338;-69
2022/10/26 16:19:24;;;;;;;15.23;9.65;;;;;;;;;;6304987;28;20067;-72
2022/10/26 16:22:25;;;;;;;15.00;9.07;;;;;;;;;;6303603;28;20044;-69
2022/10/26 16:25:28;;;;;;;16.88;9.98;;;;;;;;;;6304397;28;20109;-68
2022/10/26 16:28:31;;;;;;;14.55;10.57;;;;;;;;;;6307195;28;20272;-69
2022/10/26 16:31:33;;;;;;;15.55;10.00;;;;;;;;;;6302417;28;20086;-67
2022/10/26 16:34:35;;;;;;;18.58;10.50;;;;;;;;;;6296390;28;20344;-65
2022/10/26 16:37:36;;;;;;;19.55;10.73;;;;;;;;;;6302855;28;20387;-65
2022/10/26 16:40:41;;;;;;;18.80;10.30;;;;;;;;;;6300921;28;20056;-65
2022/10/26 16:43:44;;;;;;;20.08;10.48;;;;;;;;;;6301039;28;20056;-64
2022/10/26 16:46:45;;;;;;;20.30;11.48;;;;;;;;;;6301393;28;20169;-64
2022/10/26 16:49:47;;;;;;;17.23;10.40;;;;;;;;;;6290185;28;20063;-64
2022/10/26 16:52:49;;;;;;;20.15;10.85;;;;;;;;;;6302767;28;20093;-64
2022/10/26 16:55:52;;;;;;;19.50;11.65;;;;;;;;;;6302986;28;20048;-63
2022/10/26 16:58:53;;;;;;;20.52;11.07;;;;;;;;;;6304121;28;20048;-63
2022/10/26 17:01:56;;;;;;;17.55;10.85;;;;;;;;;;6306229;28;20263;-64
2022/10/26 17:04:58;;;;;;;23.23;11.63;;;;;;;;;;6300040;28;20071;-63
2022/10/26 17:07:59;;;;;;;21.13;11.00;;;;;;;;;;6299217;28;20408;-64
2022/10/26 17:11:04;;;;;;;22.25;10.90;;;;;;;;;;6301879;28;20053;-63
2022/10/26 17:14:06;;;;;;;23.70;12.18;;;;;;;;;;6301259;28;20052;-63
2022/10/26 17:17:07;;;;;;;18.17;11.75;;;;;;;;;;6301956;28;20059;-63
2022/10/26 17:20:10;;;;;;;20.80;12.82;;;;;;;;;;6303929;28;20045;-63
2022/10/26 17:23:12;;;;;;;21.00;13.00;;;;;;;;;;6304904;28;20270;-63
2022/10/26 17:26:15;;;;;;;21.00;12.25;;;;;;;;;;6304411;28;20052;-63
2022/10/26 17:29:17;;;;;;;27.13;13.45;;;;;;;;;;6302919;28;20057;-63
2022/10/26 17:32:21;;;;;;;27.70;13.20;;;;;;;;;;6304466;28;20140;-63
2022/10/26 17:35:22;;;;;;;18.65;12.48;;;;;;;;;;6303405;28;20053;-63
2022/10/26 17:38:24;;;;;;;19.67;12.75;;;;;;;;;;6304944;28;20230;-64
2022/10/26 17:41:27;;;;;;;21.83;12.50;;;;;;;;;;6301462;28;20227;-64
2022/10/26 17:44:29;;;;;;;20.77;12.50;;;;;;;;;;6301640;28;20076;-64
2022/10/26 17:47:30;;;;;;;20.17;13.48;;;;;;;;;;6300358;28;20062;-64
2022/10/26 17:50:32;;;;;;;22.95;13.75;;;;;;;;;;6300971;28;20242;-65
2022/10/26 17:53:34;;;;;;;22.95;13.25;;;;;;;;;;6301777;28;20350;-67
2022/10/26 17:56:38;;;;;;;24.02;14.52;;;;;;;;;;6308227;28;20056;-64
2022/10/26 17:59:39;;;;;;;19.52;13.57;;;;;;;;;;6307975;28;20056;-64
2022/10/26 18:02:41;;;;;;;20.88;13.25;;;;;;;;;;6307054;28;20401;-66
2022/10/26 18:05:48;;;;;;;25.55;13.75;;;;;;;;;;6309622;28;20117;-67
2022/10/26 18:08:50;;;;;;;24.52;13.75;;;;;;;;;;6306612;28;20068;-67
2022/10/26 18:11:53;;;;;;;25.95;14.68;;;;;;;;;;6308445;28;20101;-67